Time;durP1;ratioP1;P1;durP2;ratioP2;P2;SDS_P1;SDS_P2;PMS_P1;PMS_P2;Temp;Humidity;BMP_temperature;BMP_pressure;BME280_temperature;BME280_humidity;BME280_pressure;Samples;Min_cycle;Max_cycle;Signal;HPM_P1;HPM_P2
2023/07/19 00:01:05;;;;;;;4.10;2.80;;;;;;;14.70;57.47;100013.76;131286;1253;107494;-75
2023/07/19 00:04:14;;;;;;;5.40;3.10;;;;;;;14.70;57.85;100015.52;131290;1248;108163;-73
2023/07/19 00:07:20;;;;;;;4.50;3.40;;;;;;;14.71;57.94;100006.13;131329;1253;107517;-75
2023/07/19 00:10:25;;;;;;;4.70;3.30;;;;;;;14.73;57.97;100005.66;131291;1248;107524;-73
2023/07/19 00:13:31;;;;;;;5.40;3.30;;;;;;;14.76;58.02;100004.87;131189;1253;105885;-73
2023/07/19 00:16:36;;;;;;;3.80;3.00;;;;;;;14.77;58.09;100000.23;131208;1247;107717;-73
2023/07/19 00:19:42;;;;;;;6.30;3.60;;;;;;;14.78;57.99;99996.14;131172;1253;107433;-73
2023/07/19 00:22:47;;;;;;;3.80;3.00;;;;;;;14.78;58.34;99997.96;131281;1253;107713;-72
2023/07/19 00:25:53;;;;;;;4.50;3.10;;;;;;;14.79;58.30;100002.59;131233;1253;107463;-73
2023/07/19 00:28:58;;;;;;;3.60;3.00;;;;;;;14.78;58.52;100003.13;131215;1248;107224;-72
2023/07/19 00:32:04;;;;;;;4.00;3.10;;;;;;;14.80;58.45;100000.79;131408;1253;107514;-72
2023/07/19 00:35:11;;;;;;;6.90;3.30;;;;;;;14.81;58.57;99991.84;131142;1252;175946;-72
2023/07/19 00:38:17;;;;;;;4.80;3.30;;;;;;;14.80;58.67;99986.23;131204;1250;107511;-72
2023/07/19 00:41:22;;;;;;;5.20;3.20;;;;;;;14.77;58.52;99983.94;131287;1253;107495;-72
2023/07/19 00:44:28;;;;;;;4.50;3.20;;;;;;;14.72;58.71;99983.05;131306;1251;106534;-72
2023/07/19 00:47:34;;;;;;;4.20;2.90;;;;;;;14.66;58.78;99985.41;131268;1248;106755;-72
2023/07/19 00:50:40;;;;;;;4.10;3.10;;;;;;;14.62;59.20;99981.84;131029;1248;107555;-73
2023/07/19 00:53:48;;;;;;;5.30;3.20;;;;;;;14.60;59.23;99975.95;131280;1250;108070;-73
2023/07/19 00:56:54;;;;;;;4.00;3.00;;;;;;;14.52;59.21;99976.34;131215;1253;107438;-73
2023/07/19 01:00:00;;;;;;;3.60;3.10;;;;;;;14.51;59.59;99981.66;131278;1254;107235;-73
2023/07/19 01:03:06;;;;;;;3.40;3.00;;;;;;;14.54;59.64;99982.20;131207;1254;106883;-73
2023/07/19 01:06:12;;;;;;;3.40;2.70;;;;;;;14.59;59.59;99980.03;131114;1253;107467;-72
2023/07/19 01:09:17;;;;;;;3.50;2.70;;;;;;;14.64;60.09;99968.73;131175;1253;107520;-72
2023/07/19 01:12:24;;;;;;;4.70;2.90;;;;;;;14.71;60.14;99960.94;131158;1251;107485;-73
2023/07/19 01:15:29;;;;;;;6.20;3.10;;;;;;;14.79;60.16;99962.43;131184;1254;107486;-72
2023/07/19 01:18:36;;;;;;;3.90;2.90;;;;;;;14.83;60.33;99956.66;131307;1254;107567;-73
2023/07/19 01:21:42;;;;;;;5.60;2.80;;;;;;;14.80;60.16;99961.04;131270;1253;107382;-73
2023/07/19 01:24:48;;;;;;;4.90;3.30;;;;;;;14.63;60.30;99961.58;131214;1260;108096;-73
2023/07/19 01:27:53;;;;;;;5.80;3.70;;;;;;;14.62;60.43;99958.59;131231;1252;107571;-73
2023/07/19 01:31:02;;;;;;;6.00;3.40;;;;;;;14.69;60.58;99953.92;131272;1251;107528;-73
2023/07/19 01:34:08;;;;;;;5.90;3.70;;;;;;;14.75;60.90;99947.84;131225;1253;107216;-73
2023/07/19 01:37:16;;;;;;;5.10;3.60;;;;;;;14.77;60.98;99942.25;131238;1253;107428;-73
2023/07/19 01:40:21;;;;;;;4.10;3.30;;;;;;;14.77;60.89;99942.38;131234;1248;107521;-74
2023/07/19 01:43:27;;;;;;;4.80;3.20;;;;;;;14.75;60.98;99949.11;131219;1253;107538;-73
2023/07/19 01:46:32;;;;;;;6.60;3.50;;;;;;;14.72;60.94;99947.27;131186;1253;106856;-73
2023/07/19 01:49:39;;;;;;;5.20;3.20;;;;;;;14.70;61.15;99944.44;131062;1254;107443;-73
2023/07/19 01:52:44;;;;;;;3.90;3.20;;;;;;;14.64;61.19;99944.89;131067;1254;106781;-73
2023/07/19 01:55:51;;;;;;;5.00;3.10;;;;;;;14.58;61.09;99942.04;131259;1251;107620;-73
2023/07/19 01:58:56;;;;;;;5.20;3.30;;;;;;;14.50;61.19;99944.27;131129;1254;107678;-73
2023/07/19 02:02:02;;;;;;;6.00;3.50;;;;;;;14.46;61.38;99947.15;131192;1252;107530;-72
2023/07/19 02:05:10;;;;;;;4.90;3.30;;;;;;;14.42;61.52;99940.65;131241;1252;107492;-73
2023/07/19 02:08:16;;;;;;;4.80;2.90;;;;;;;14.37;61.17;99937.70;131283;1254;107525;-73
2023/07/19 02:11:22;;;;;;;4.40;3.50;;;;;;;14.30;61.47;99937.77;131138;1248;109245;-73
2023/07/19 02:14:28;;;;;;;5.20;3.10;;;;;;;14.26;61.46;99936.05;131223;1253;107422;-73
2023/07/19 02:17:33;;;;;;;4.40;3.20;;;;;;;14.22;61.42;99940.58;131230;1251;107491;-74
2023/07/19 02:20:44;;;;;;;5.40;3.80;;;;;;;14.19;61.62;99938.84;131269;1253;107402;-74
2023/07/19 02:23:49;;;;;;;5.60;3.50;;;;;;;14.15;61.57;99938.42;131187;1253;107597;-74
2023/07/19 02:26:55;;;;;;;4.40;3.00;;;;;;;14.12;61.75;99944.44;131258;1252;107354;-73
2023/07/19 02:30:00;;;;;;;5.20;3.10;;;;;;;14.11;61.64;99942.23;131264;1254;107337;-76
2023/07/19 02:33:06;;;;;;;4.60;3.50;;;;;;;14.06;61.72;99947.25;131166;1254;107254;-76
2023/07/19 02:36:13;;;;;;;5.10;3.20;;;;;;;13.89;61.94;99945.05;131124;1255;107501;-76
2023/07/19 02:39:20;;;;;;;4.40;3.50;;;;;;;13.80;61.76;99938.59;131306;1254;107596;-73
2023/07/19 02:42:25;;;;;;;6.10;3.60;;;;;;;13.71;62.16;99940.55;131200;1253;107463;-74
2023/07/19 02:45:33;;;;;;;4.80;3.40;;;;;;;13.68;62.21;99939.14;131248;1253;107450;-73
2023/07/19 02:48:39;;;;;;;4.80;3.20;;;;;;;13.70;62.14;99929.73;131350;1253;106699;-73
2023/07/19 02:51:45;;;;;;;5.60;3.40;;;;;;;13.69;61.95;99926.36;131325;1253;107394;-73
2023/07/19 02:54:50;;;;;;;5.50;3.40;;;;;;;13.65;62.13;99925.38;131280;1248;108073;-73
2023/07/19 02:57:56;;;;;;;5.60;3.20;;;;;;;13.61;61.96;99921.54;131099;1251;108668;-74
2023/07/19 03:01:01;;;;;;;4.40;3.20;;;;;;;13.57;62.21;99925.18;131213;1253;107467;-73
2023/07/19 03:04:07;;;;;;;6.50;3.20;;;;;;;13.56;62.17;99924.06;131245;1248;107523;-73
2023/07/19 03:07:13;;;;;;;4.00;3.10;;;;;;;13.57;62.22;99925.66;130976;1248;107629;-74
2023/07/19 03:10:19;;;;;;;4.90;3.40;;;;;;;13.55;62.27;99924.73;131089;1253;107476;-73
2023/07/19 03:13:24;;;;;;;4.30;3.30;;;;;;;13.52;62.43;99927.90;131103;1253;106548;-73
2023/07/19 03:16:30;;;;;;;4.20;3.30;;;;;;;13.52;62.52;99930.39;131300;1254;106532;-73
2023/07/19 03:19:36;;;;;;;4.70;3.70;;;;;;;13.53;62.47;99931.89;131191;1248;105567;-74
2023/07/19 03:22:41;;;;;;;5.00;3.90;;;;;;;13.52;62.38;99925.60;131074;1254;107497;-74
2023/07/19 03:25:47;;;;;;;5.20;4.20;;;;;;;13.51;62.75;99926.88;131237;1252;107521;-73
2023/07/19 03:28:53;;;;;;;5.30;4.20;;;;;;;13.52;62.96;99928.97;131195;1253;107463;-73
2023/07/19 03:31:58;;;;;;;6.80;5.00;;;;;;;13.58;62.80;99925.15;131084;1254;107563;-73
2023/07/19 03:35:04;;;;;;;7.10;4.90;;;;;;;13.66;63.01;99923.26;131074;1252;108689;-73
2023/07/19 03:38:10;;;;;;;7.40;4.80;;;;;;;13.82;62.95;99924.45;131265;1253;107380;-73
2023/07/19 03:41:16;;;;;;;5.10;3.80;;;;;;;13.99;63.06;99925.46;131058;1247;107380;-73
2023/07/19 03:44:22;;;;;;;4.50;3.80;;;;;;;14.18;63.07;99910.60;131250;1253;107388;-73
2023/07/19 03:47:27;;;;;;;4.60;3.90;;;;;;;14.40;62.86;99911.52;131193;1253;107504;-73
2023/07/19 03:50:33;;;;;;;5.20;3.80;;;;;;;14.67;62.75;99907.49;131174;1253;107496;-73
2023/07/19 03:53:39;;;;;;;8.00;3.80;;;;;;;14.92;62.68;99903.66;131254;1253;105837;-73
2023/07/19 03:56:44;;;;;;;6.00;3.70;;;;;;;15.08;62.49;99897.50;131191;1254;106690;-73
2023/07/19 03:59:50;;;;;;;6.50;3.90;;;;;;;15.25;62.62;99896.54;131020;1253;107513;-73
2023/07/19 04:02:55;;;;;;;5.20;3.90;;;;;;;15.50;62.76;99895.70;131177;1250;107216;-73
2023/07/19 04:06:01;;;;;;;4.30;3.40;;;;;;;15.77;62.64;99892.42;131106;1254;106467;-73
2023/07/19 04:09:07;;;;;;;5.80;3.50;;;;;;;16.01;62.52;99892.95;131088;1255;108583;-73
2023/07/19 04:12:12;;;;;;;4.80;3.40;;;;;;;16.24;62.71;99892.08;131246;1252;108136;-73
2023/07/19 04:15:18;;;;;;;4.60;3.60;;;;;;;16.44;62.56;99888.84;131199;1248;106516;-73
2023/07/19 04:18:25;;;;;;;5.50;3.70;;;;;;;16.65;62.38;99888.09;131111;1254;107511;-73
2023/07/19 04:21:30;;;;;;;4.80;3.10;;;;;;;16.89;62.39;99890.42;131202;1248;107471;-73
2023/07/19 04:24:36;;;;;;;7.70;3.30;;;;;;;17.13;62.41;99888.70;131064;1254;107522;-73
2023/07/19 04:27:41;;;;;;;10.90;3.40;;;;;;;17.39;62.28;99887.64;131023;1254;107532;-73
2023/07/19 04:30:47;;;;;;;5.70;3.80;;;;;;;17.63;62.26;99886.48;131125;1254;107458;-73
2023/07/19 04:33:54;;;;;;;4.30;3.20;;;;;;;17.85;61.98;99886.20;131247;1248;107151;-73
2023/07/19 04:37:00;;;;;;;5.90;3.40;;;;;;;17.99;62.04;99886.14;131205;1254;107387;-73
2023/07/19 04:40:08;;;;;;;5.50;3.50;;;;;;;18.19;62.26;99886.46;131225;1251;107273;-73
2023/07/19 04:43:15;;;;;;;6.50;3.50;;;;;;;18.42;62.31;99886.23;131080;1248;107228;-74
2023/07/19 04:46:22;;;;;;;4.30;3.20;;;;;;;18.64;62.16;99888.80;131222;1251;107374;-73
2023/07/19 04:49:28;;;;;;;4.60;3.10;;;;;;;18.79;62.05;99883.99;131275;1252;107376;-73
2023/07/19 04:52:35;;;;;;;10.50;3.40;;;;;;;18.98;61.97;99884.16;131674;1248;107604;-73
2023/07/19 04:55:40;;;;;;;6.20;3.00;;;;;;;19.19;61.87;99889.48;131322;1254;107590;-73
2023/07/19 04:58:46;;;;;;;4.10;3.10;;;;;;;19.37;61.71;99880.60;131216;1253;106571;-73
2023/07/19 05:01:52;;;;;;;5.80;3.40;;;;;;;19.54;61.60;99885.26;131233;1251;106541;-73
2023/07/19 05:04:58;;;;;;;5.50;3.20;;;;;;;19.74;61.69;99889.92;131104;1251;107497;-73
2023/07/19 05:08:04;;;;;;;4.70;2.90;;;;;;;19.98;61.10;99888.17;131179;1253;107535;-73
2023/07/19 05:11:11;;;;;;;4.60;3.20;;;;;;;20.07;61.09;99887.26;131102;1253;107409;-73
2023/07/19 05:14:17;;;;;;;5.40;3.00;;;;;;;20.04;61.03;99890.66;131221;1252;107508;-73
2023/07/19 05:17:23;;;;;;;5.60;2.80;;;;;;;20.05;61.28;99890.14;131372;1252;107308;-74
2023/07/19 05:20:28;;;;;;;4.50;2.90;;;;;;;20.08;61.11;99890.54;131091;1253;107430;-73
2023/07/19 05:23:34;;;;;;;4.00;2.70;;;;;;;20.07;61.06;99887.95;131246;1251;107518;-73
2023/07/19 05:26:39;;;;;;;2.90;2.50;;;;;;;20.13;61.05;99881.55;131249;1253;107394;-73
2023/07/19 05:29:45;;;;;;;4.30;2.60;;;;;;;20.26;60.74;99884.76;131250;1251;108123;-73
2023/07/19 05:32:51;;;;;;;3.00;2.40;;;;;;;20.37;60.42;99882.92;131182;1253;107552;-73
2023/07/19 05:35:56;;;;;;;3.60;2.40;;;;;;;20.52;60.27;99880.40;131453;1248;107230;-74
2023/07/19 05:39:03;;;;;;;4.20;2.20;;;;;;;20.67;60.14;99880.70;131378;1251;107143;-73
2023/07/19 05:42:09;;;;;;;4.50;2.30;;;;;;;20.81;59.79;99879.22;131427;1251;107368;-74
2023/07/19 05:45:15;;;;;;;5.70;2.00;;;;;;;20.94;59.45;99878.33;131365;1252;108679;-74
2023/07/19 05:48:21;;;;;;;2.70;1.80;;;;;;;21.11;59.24;99878.70;131373;1251;107240;-73
2023/07/19 05:51:26;;;;;;;4.70;1.80;;;;;;;21.26;59.14;99877.23;131202;1248;109267;-74
2023/07/19 05:54:32;;;;;;;2.40;1.80;;;;;;;21.35;59.01;99876.55;131253;1254;107511;-73
2023/07/19 05:57:37;;;;;;;2.80;1.80;;;;;;;21.44;58.43;99874.09;131204;1253;106675;-73
2023/07/19 06:00:43;;;;;;;4.00;1.80;;;;;;;21.51;58.40;99870.89;131266;1252;106670;-73
2023/07/19 06:03:48;;;;;;;2.60;1.80;;;;;;;21.61;58.12;99870.65;131180;1252;107529;-73
2023/07/19 06:06:54;;;;;;;3.70;1.90;;;;;;;21.67;57.74;99869.54;131284;1248;107215;-73
2023/07/19 06:09:59;;;;;;;2.60;1.80;;;;;;;21.72;57.53;99865.36;131270;1248;107312;-73
2023/07/19 06:13:05;;;;;;;5.60;2.10;;;;;;;21.76;57.37;99864.98;131268;1253;107267;-73
2023/07/19 06:16:11;;;;;;;6.50;1.90;;;;;;;21.83;57.25;99862.73;131307;1248;107235;-73
2023/07/19 06:19:18;;;;;;;2.20;1.70;;;;;;;21.90;56.85;99857.54;131259;1252;107337;-73
2023/07/19 06:22:25;;;;;;;9.90;8.80;;;;;;;21.97;56.62;99853.06;131263;1253;107366;-74
2023/07/19 06:25:30;;;;;;;3.10;2.60;;;;;;;22.02;56.48;99851.97;131214;1249;107518;-74
2023/07/19 06:28:36;;;;;;;2.80;1.90;;;;;;;22.07;56.45;99848.44;131288;1254;107654;-75
2023/07/19 06:31:42;;;;;;;5.30;2.00;;;;;;;22.13;56.06;99844.15;131264;1253;106674;-73
2023/07/19 06:34:48;;;;;;;2.30;1.60;;;;;;;22.19;55.84;99842.23;131211;1248;109288;-73
2023/07/19 06:37:53;;;;;;;3.50;1.40;;;;;;;22.26;55.09;99846.59;131279;1248;107546;-73
2023/07/19 06:41:04;;;;;;;2.60;1.60;;;;;;;22.30;55.00;99842.63;131160;1248;107338;-73
2023/07/19 06:44:09;;;;;;;2.90;1.50;;;;;;;22.41;54.64;99840.57;131257;1253;107512;-73
2023/07/19 06:47:15;;;;;;;4.00;1.40;;;;;;;22.52;54.04;99839.48;131251;1252;106740;-72
2023/07/19 06:50:21;;;;;;;2.10;1.30;;;;;;;22.69;53.76;99842.64;131299;1253;107375;-73
2023/07/19 06:53:26;;;;;;;1.60;1.20;;;;;;;22.96;53.21;99840.25;131246;1248;107478;-73
2023/07/19 06:56:32;;;;;;;2.10;1.20;;;;;;;23.24;52.94;99838.05;131176;1253;107548;-73
2023/07/19 06:59:37;;;;;;;1.40;1.20;;;;;;;23.41;52.31;99832.72;131211;1248;107494;-73
2023/07/19 07:02:43;;;;;;;5.00;1.70;;;;;;;23.53;52.10;99831.55;131198;1254;107494;-73
2023/07/19 07:05:48;;;;;;;2.20;1.20;;;;;;;23.62;51.80;99829.16;131275;1253;107393;-73
2023/07/19 07:08:54;;;;;;;1.40;1.20;;;;;;;23.62;51.26;99829.44;131333;1253;106786;-73
2023/07/19 07:12:02;;;;;;;1.20;1.00;;;;;;;23.61;51.04;99830.30;131298;1249;108699;-75
2023/07/19 07:15:10;;;;;;;2.20;1.20;;;;;;;23.60;50.87;99824.16;131272;1253;107517;-75
2023/07/19 07:18:15;;;;;;;2.20;1.10;;;;;;;23.59;50.75;99825.56;131153;1249;107493;-74
2023/07/19 07:21:21;;;;;;;2.70;1.00;;;;;;;23.57;50.48;99822.17;131293;1262;107505;-74
2023/07/19 07:24:26;;;;;;;1.70;1.00;;;;;;;23.60;50.41;99822.16;131212;1253;108797;-74
2023/07/19 07:27:32;;;;;;;1.70;1.20;;;;;;;23.63;49.66;99819.09;131270;1252;107583;-75
2023/07/19 07:30:39;;;;;;;3.70;1.30;;;;;;;23.62;49.61;99818.38;131369;1253;107523;-75
2023/07/19 07:33:45;;;;;;;2.00;1.20;;;;;;;23.60;49.33;99815.78;131186;1253;107526;-75
2023/07/19 07:36:51;;;;;;;1.80;1.20;;;;;;;23.57;48.90;99811.71;131417;1253;107483;-74
2023/07/19 07:39:56;;;;;;;1.60;1.20;;;;;;;23.52;48.77;99806.84;131208;1253;107285;-74
2023/07/19 07:43:02;;;;;;;3.40;1.30;;;;;;;23.50;48.77;99799.36;131232;1253;106670;-74
2023/07/19 07:46:08;;;;;;;2.50;1.30;;;;;;;23.55;48.31;99801.48;131227;1252;107607;-74
2023/07/19 07:49:13;;;;;;;2.80;1.40;;;;;;;23.61;48.03;99793.41;131275;1251;107539;-74
2023/07/19 07:52:19;;;;;;;2.80;1.30;;;;;;;23.70;47.41;99793.48;131174;1253;107289;-74
2023/07/19 07:55:24;;;;;;;2.60;1.30;;;;;;;23.77;47.40;99787.54;131215;1253;107531;-75
2023/07/19 07:58:30;;;;;;;2.90;1.20;;;;;;;23.79;46.58;99782.09;131254;1253;107521;-74
2023/07/19 08:01:35;;;;;;;2.20;1.40;;;;;;;23.83;46.42;99780.52;131274;1252;107675;-74
2023/07/19 08:04:41;;;;;;;4.10;1.40;;;;;;;23.86;45.79;99779.13;131191;1252;107525;-73
2023/07/19 08:07:47;;;;;;;3.00;1.30;;;;;;;23.87;45.93;99772.29;131245;1253;107474;-73
2023/07/19 08:10:53;;;;;;;2.60;1.20;;;;;;;23.83;45.07;99764.55;131225;1253;107517;-73
2023/07/19 08:13:58;;;;;;;1.80;1.20;;;;;;;23.81;45.77;99769.04;131265;1251;107242;-73
2023/07/19 08:17:04;;;;;;;2.20;1.00;;;;;;;23.85;45.59;99762.06;131220;1253;107515;-73
2023/07/19 08:20:11;;;;;;;1.40;1.00;;;;;;;23.86;45.25;99757.21;131300;1251;106527;-73
2023/07/19 08:23:17;;;;;;;2.40;1.10;;;;;;;23.93;44.83;99750.56;131292;1252;107544;-73
2023/07/19 08:26:23;;;;;;;2.20;1.20;;;;;;;23.98;44.51;99743.25;131205;1253;107398;-73
2023/07/19 08:29:29;;;;;;;5.10;1.40;;;;;;;24.03;44.14;99742.55;131192;1253;107254;-73
2023/07/19 08:32:35;;;;;;;2.40;1.20;;;;;;;24.03;40.22;99736.23;131247;1253;107213;-73
2023/07/19 08:35:42;;;;;;;3.40;1.00;;;;;;;24.06;42.74;99733.64;131232;1250;108392;-73
2023/07/19 08:38:48;;;;;;;3.00;1.30;;;;;;;24.19;42.88;99736.02;131314;1253;106631;-73
2023/07/19 08:41:54;;;;;;;1.80;1.30;;;;;;;24.30;43.08;99737.52;131233;1254;107247;-73
2023/07/19 08:45:00;;;;;;;3.20;1.40;;;;;;;24.46;42.25;99738.77;131235;1253;107523;-73
2023/07/19 08:48:07;;;;;;;1.70;1.10;;;;;;;24.63;42.02;99739.45;131231;1261;107780;-73
2023/07/19 08:51:15;;;;;;;1.80;1.00;;;;;;;24.87;42.07;99736.60;131172;1254;107357;-73
2023/07/19 08:54:21;;;;;;;2.50;1.00;;;;;;;25.12;41.89;99735.16;131256;1253;108548;-73
2023/07/19 08:57:26;;;;;;;3.30;1.30;;;;;;;25.38;41.32;99728.31;131262;1253;107522;-73
2023/07/19 09:00:34;;;;;;;2.70;1.20;;;;;;;25.67;41.45;99722.95;131273;1253;107541;-73
2023/07/19 09:03:39;;;;;;;1.60;1.20;;;;;;;25.93;41.21;99719.41;131387;1248;108113;-73
2023/07/19 09:06:45;;;;;;;2.70;1.10;;;;;;;26.09;40.74;99715.88;131517;1252;108066;-74
2023/07/19 09:10:00;;;;;;;2.00;1.20;;;;;;;26.29;40.44;99717.17;131454;1253;107620;-75
2023/07/19 09:13:07;;;;;;;2.00;1.30;;;;;;;26.47;40.60;99713.05;131024;1257;108659;-73
2023/07/19 09:16:17;;;;;;;2.50;1.20;;;;;;;26.58;39.46;99713.06;131329;1253;109994;-74
2023/07/19 09:19:22;;;;;;;1.80;1.10;;;;;;;26.52;38.68;99712.63;131355;1248;107364;-74
2023/07/19 09:22:31;;;;;;;2.60;1.00;;;;;;;26.57;38.90;99711.26;131464;1254;107336;-75
2023/07/19 09:25:52;;;;;;;2.20;1.30;;;;;;;26.61;36.69;99705.36;131249;1255;107615;-75
2023/07/19 09:28:58;;;;;;;1.60;1.20;;;;;;;26.26;34.55;99706.55;131437;1253;107571;-74
2023/07/19 09:32:06;;;;;;;2.80;1.30;;;;;;;25.98;35.26;99702.49;131399;1252;107511;-74
2023/07/19 09:35:11;;;;;;;1.80;1.30;;;;;;;25.89;35.84;99695.34;131416;1253;108080;-75
2023/07/19 09:38:18;;;;;;;2.20;1.00;;;;;;;25.87;37.27;99694.50;131438;1254;107492;-75
2023/07/19 09:41:23;;;;;;;1.70;1.20;;;;;;;25.85;37.22;99691.98;131258;1253;107550;-75
2023/07/19 09:44:29;;;;;;;2.70;1.30;;;;;;;25.83;37.47;99683.33;131359;1253;107663;-73
2023/07/19 09:47:35;;;;;;;2.80;1.50;;;;;;;25.96;36.62;99683.08;131306;1253;107548;-73
2023/07/19 09:50:42;;;;;;;1.90;1.20;;;;;;;25.89;34.74;99678.77;131253;1247;106675;-72
2023/07/19 09:53:48;;;;;;;1.20;1.10;;;;;;;25.73;34.22;99668.75;131275;1253;107392;-72
2023/07/19 09:56:54;;;;;;;2.20;1.30;;;;;;;25.61;34.95;99668.55;131271;1253;107615;-72
2023/07/19 10:00:02;;;;;;;2.70;1.10;;;;;;;25.56;35.70;99669.45;131203;1253;107508;-72
2023/07/19 10:03:20;;;;;;;2.10;1.20;;;;;;;25.69;35.79;99659.13;131266;1253;107459;-72
2023/07/19 10:06:31;;;;;;;2.50;1.20;;;;;;;25.90;35.29;99652.11;131336;1251;108066;-72
2023/07/19 10:09:38;;;;;;;2.00;1.30;;;;;;;26.18;35.92;99640.73;131253;1251;109298;-75
2023/07/19 10:12:48;;;;;;;2.20;1.30;;;;;;;26.46;33.05;99641.36;131198;1253;107539;-74
2023/07/19 10:15:54;;;;;;;1.30;1.20;;;;;;;26.61;35.55;99633.94;131403;1252;107505;-74
2023/07/19 10:19:14;;;;;;;2.30;1.50;;;;;;;26.92;33.87;99632.11;131239;1253;108224;-73
2023/07/19 10:22:19;;;;;;;2.20;1.20;;;;;;;26.96;33.83;99626.58;131217;1263;107467;-72
2023/07/19 10:25:28;;;;;;;1.30;1.00;;;;;;;27.12;34.70;99619.46;131322;1253;107823;-73
2023/07/19 10:28:33;;;;;;;1.60;1.30;;;;;;;27.42;34.88;99616.87;131264;1253;107530;-73
2023/07/19 10:31:39;;;;;;;1.60;1.30;;;;;;;27.59;34.61;99606.48;131269;1252;108174;-73
2023/07/19 10:34:46;;;;;;;2.90;1.40;;;;;;;27.63;32.79;99609.09;131403;1248;107530;-73
2023/07/19 10:37:55;;;;;;;1.80;1.20;;;;;;;27.62;34.21;99605.27;131337;1253;107941;-73
2023/07/19 10:41:02;;;;;;;1.70;1.30;;;;;;;27.85;34.70;99604.70;131231;1253;107406;-73
2023/07/19 10:44:08;;;;;;;4.40;1.40;;;;;;;28.20;34.28;99602.73;131348;1253;107535;-73
2023/07/19 10:47:19;;;;;;;6.20;1.60;;;;;;;28.23;31.50;99600.84;131274;1253;107965;-73
2023/07/19 10:50:27;;;;;;;2.70;1.30;;;;;;;28.24;32.30;99597.00;131190;1251;107192;-75
2023/07/19 10:53:43;;;;;;;3.40;1.60;;;;;;;28.40;33.29;99590.93;131284;1252;106149;-73
2023/07/19 10:56:51;;;;;;;1.70;1.40;;;;;;;28.59;33.30;99587.61;131316;1254;107521;-74
2023/07/19 10:59:56;;;;;;;2.50;1.40;;;;;;;28.68;33.07;99585.23;131238;1255;107504;-73
2023/07/19 11:03:02;;;;;;;1.50;1.20;;;;;;;28.70;33.03;99582.02;131261;1253;106841;-74
2023/07/19 11:06:09;;;;;;;1.40;1.20;;;;;;;28.82;33.34;99577.44;131233;1253;107436;-74
2023/07/19 11:09:18;;;;;;;1.70;1.30;;;;;;;28.96;33.02;99574.38;131291;1253;107571;-74
2023/07/19 11:12:24;;;;;;;1.80;1.30;;;;;;;28.95;31.52;99568.94;131215;1253;107333;-74
2023/07/19 11:15:30;;;;;;;3.10;1.50;;;;;;;28.86;29.80;99575.48;131254;1254;107231;-74
2023/07/19 11:18:39;;;;;;;3.60;1.50;;;;;;;28.57;30.21;99575.45;131249;1252;108607;-74
2023/07/19 11:21:45;;;;;;;2.90;1.50;;;;;;;28.20;29.10;99571.89;131203;1253;107975;-73
2023/07/19 11:24:53;;;;;;;2.50;1.70;;;;;;;28.06;30.11;99566.19;131280;1254;107528;-74
2023/07/19 11:27:59;;;;;;;1.60;1.30;;;;;;;27.97;30.60;99567.31;131341;1254;107412;-73
2023/07/19 11:31:05;;;;;;;2.30;1.50;;;;;;;28.08;30.83;99569.69;131237;1254;107531;-74
2023/07/19 11:34:13;;;;;;;2.30;1.30;;;;;;;28.07;30.17;99570.13;131339;1261;107529;-74
2023/07/19 11:37:21;;;;;;;1.70;1.50;;;;;;;28.12;31.09;99562.04;131317;1253;107742;-74
2023/07/19 11:40:27;;;;;;;3.10;1.40;;;;;;;28.21;29.56;99557.03;131349;1258;107254;-74
2023/07/19 11:43:33;;;;;;;1.80;1.50;;;;;;;28.10;30.26;99559.80;131267;1253;107410;-74
2023/07/19 11:46:39;;;;;;;1.80;1.30;;;;;;;28.19;31.01;99558.30;131229;1251;107384;-74
2023/07/19 11:49:44;;;;;;;4.20;1.60;;;;;;;28.27;30.27;99562.13;131206;1261;107194;-74
2023/07/19 11:52:54;;;;;;;2.70;1.60;;;;;;;28.24;29.80;99559.03;131236;1253;107512;-74
2023/07/19 11:56:00;;;;;;;3.70;1.50;;;;;;;28.32;29.37;99562.03;131241;1253;105950;-74
2023/07/19 11:59:05;;;;;;;3.30;1.40;;;;;;;28.23;29.20;99549.39;131182;1254;107423;-74
2023/07/19 12:02:11;;;;;;;3.20;1.50;;;;;;;28.31;30.47;99547.12;131173;1252;107609;-74
2023/07/19 12:05:19;;;;;;;1.50;1.30;;;;;;;28.46;29.85;99545.16;131182;1253;107340;-74
2023/07/19 12:08:25;;;;;;;1.30;1.20;;;;;;;28.56;29.99;99537.84;131236;1253;107435;-74
2023/07/19 12:11:31;;;;;;;3.60;1.50;;;;;;;28.63;28.60;99530.85;131274;1254;107339;-74
2023/07/19 12:14:36;;;;;;;1.50;1.30;;;;;;;28.68;29.21;99522.41;131139;1254;107216;-74
2023/07/19 12:17:42;;;;;;;3.10;1.50;;;;;;;28.85;29.79;99516.94;131277;1253;107543;-74
2023/07/19 12:20:49;;;;;;;2.70;1.60;;;;;;;28.88;28.26;99517.77;131198;1253;106832;-74
2023/07/19 12:23:54;;;;;;;2.90;1.50;;;;;;;28.64;27.72;99516.40;131272;1251;107246;-73
2023/07/19 12:27:00;;;;;;;2.20;1.40;;;;;;;28.35;27.75;99511.35;131217;1253;107423;-73
2023/07/19 12:30:09;;;;;;;2.40;1.40;;;;;;;28.30;28.86;99500.48;131177;1253;108233;-73
2023/07/19 12:33:15;;;;;;;3.10;1.40;;;;;;;28.47;28.90;99492.96;131269;1261;107460;-73
2023/07/19 12:36:20;;;;;;;2.20;1.40;;;;;;;28.66;28.93;99485.33;131125;1261;113436;-73
2023/07/19 12:39:26;;;;;;;3.80;1.40;;;;;;;28.71;27.91;99487.13;131349;1253;106715;-73
2023/07/19 12:42:32;;;;;;;3.30;1.40;;;;;;;28.68;28.33;99497.75;131230;1252;106698;-74
2023/07/19 12:45:37;;;;;;;3.40;1.40;;;;;;;28.50;28.42;99502.48;131229;1260;107475;-74
2023/07/19 12:48:43;;;;;;;2.90;1.30;;;;;;;28.31;28.46;99501.91;131264;1251;106768;-74
2023/07/19 12:51:49;;;;;;;2.00;1.50;;;;;;;28.28;29.07;99491.77;131274;1252;107494;-74
2023/07/19 12:54:56;;;;;;;1.90;1.30;;;;;;;28.39;29.28;99485.52;131236;1253;107571;-73
2023/07/19 12:58:01;;;;;;;1.60;1.40;;;;;;;28.49;28.94;99483.48;131263;1253;107452;-73
2023/07/19 13:01:07;;;;;;;2.10;1.40;;;;;;;28.49;28.76;99486.13;131283;1253;107498;-73
2023/07/19 13:04:12;;;;;;;3.50;1.50;;;;;;;28.26;28.82;99490.98;131289;1253;107497;-73
2023/07/19 13:07:18;;;;;;;3.20;1.40;;;;;;;28.01;28.99;99487.58;131165;1253;107508;-73
2023/07/19 13:10:23;;;;;;;2.90;1.70;;;;;;;27.93;29.36;99483.43;131236;1253;107208;-74
2023/07/19 13:13:29;;;;;;;3.00;1.50;;;;;;;27.97;30.10;99483.51;131317;1251;107366;-74
2023/07/19 13:16:35;;;;;;;3.90;1.50;;;;;;;28.06;29.39;99474.88;131255;1252;107573;-74
2023/07/19 13:19:41;;;;;;;1.50;1.20;;;;;;;28.03;29.44;99475.12;131251;1254;108130;-74
2023/07/19 13:22:47;;;;;;;3.10;1.40;;;;;;;27.96;28.94;99475.34;131179;1261;108006;-73
2023/07/19 13:25:53;;;;;;;2.70;1.50;;;;;;;27.80;29.28;99472.38;131247;1254;107246;-74
2023/07/19 13:28:59;;;;;;;2.30;1.60;;;;;;;27.70;29.61;99474.42;131239;1253;106970;-74
2023/07/19 13:32:06;;;;;;;2.30;1.60;;;;;;;27.63;29.68;99467.79;131271;1253;107276;-73
2023/07/19 13:35:12;;;;;;;6.20;1.70;;;;;;;27.64;29.41;99466.09;131230;1253;107547;-73
2023/07/19 13:38:18;;;;;;;2.50;1.70;;;;;;;27.66;29.84;99457.52;131215;1253;105775;-73
2023/07/19 13:41:24;;;;;;;3.00;1.50;;;;;;;27.70;29.85;99452.33;131305;1251;105954;-73
2023/07/19 13:44:30;;;;;;;3.20;1.50;;;;;;;27.67;29.72;99453.18;131158;1253;107511;-73
2023/07/19 13:47:35;;;;;;;2.80;1.60;;;;;;;27.61;29.24;99450.16;131213;1253;107494;-73
2023/07/19 13:50:41;;;;;;;1.70;1.40;;;;;;;27.60;29.43;99449.67;131202;1261;106960;-73
2023/07/19 13:53:46;;;;;;;2.20;1.50;;;;;;;27.61;29.25;99446.38;131166;1253;107411;-73
2023/07/19 13:56:52;;;;;;;6.70;1.80;;;;;;;27.60;29.39;99444.02;131166;1253;107036;-73
2023/07/19 13:59:57;;;;;;;2.10;1.30;;;;;;;27.68;29.48;99442.60;131255;1253;107542;-73
2023/07/19 14:03:03;;;;;;;1.90;1.30;;;;;;;27.87;28.88;99436.63;131240;1261;107419;-73
2023/07/19 14:06:08;;;;;;;3.00;1.50;;;;;;;28.09;28.93;99430.84;131248;1254;108643;-74
2023/07/19 14:09:14;;;;;;;3.10;1.30;;;;;;;28.26;29.00;99431.39;131182;1254;107602;-73
2023/07/19 14:12:20;;;;;;;3.00;1.70;;;;;;;28.28;28.95;99431.43;131219;1257;107221;-74
2023/07/19 14:15:25;;;;;;;3.00;1.50;;;;;;;28.22;28.32;99430.99;131220;1253;107463;-74